sensor_id;sensor_type;location;lat;lon;timestamp;P1;durP1;ratioP1;P2;durP2;ratioP2
50102;SDS011;35993;52.604;10.078;2022-10-17T00:01:44;3.10;;;2.20;;
50102;SDS011;35993;52.604;10.078;2022-10-17T00:04:10;4.68;;;2.40;;
50102;SDS011;35993;52.604;10.078;2022-10-17T00:06:35;6.63;;;2.50;;
50102;SDS011;35993;52.604;10.078;2022-10-17T00:09:02;3.70;;;2.17;;
50102;SDS011;35993;52.604;10.078;2022-10-17T00:11:28;4.50;;;2.20;;
50102;SDS011;35993;52.604;10.078;2022-10-17T00:13:56;4.18;;;2.50;;
50102;SDS011;35993;52.604;10.078;2022-10-17T00:16:29;5.97;;;2.30;;
50102;SDS011;35993;52.604;10.078;2022-10-17T00:18:57;3.30;;;2.53;;
50102;SDS011;35993;52.604;10.078;2022-10-17T00:21:23;3.83;;;2.10;;
50102;SDS011;35993;52.604;10.078;2022-10-17T00:23:50;2.70;;;2.13;;
50102;SDS011;35993;52.604;10.078;2022-10-17T00:26:15;4.95;;;2.30;;
50102;SDS011;35993;52.604;10.078;2022-10-17T00:28:41;6.47;;;2.53;;
50102;SDS011;35993;52.604;10.078;2022-10-17T00:31:10;4.05;;;2.42;;
50102;SDS011;35993;52.604;10.078;2022-10-17T00:33:35;3.65;;;2.35;;
50102;SDS011;35993;52.604;10.078;2022-10-17T00:36:05;5.22;;;2.45;;
50102;SDS011;35993;52.604;10.078;2022-10-17T00:38:34;4.30;;;2.60;;
50102;SDS011;35993;52.604;10.078;2022-10-17T00:41:00;5.40;;;2.33;;
50102;SDS011;35993;52.604;10.078;2022-10-17T00:43:26;7.30;;;2.28;;
50102;SDS011;35993;52.604;10.078;2022-10-17T00:45:54;3.38;;;2.28;;
50102;SDS011;35993;52.604;10.078;2022-10-17T00:48:20;2.92;;;2.22;;
50102;SDS011;35993;52.604;10.078;2022-10-17T00:50:48;5.20;;;2.50;;
50102;SDS011;35993;52.604;10.078;2022-10-17T00:53:14;6.07;;;2.30;;
50102;SDS011;35993;52.604;10.078;2022-10-17T00:55:50;4.07;;;2.55;;
50102;SDS011;35993;52.604;10.078;2022-10-17T00:58:18;5.05;;;2.78;;
50102;SDS011;35993;52.604;10.078;2022-10-17T01:00:45;4.75;;;2.30;;
50102;SDS011;35993;52.604;10.078;2022-10-17T01:03:14;4.25;;;2.40;;
50102;SDS011;35993;52.604;10.078;2022-10-17T01:05:40;3.72;;;2.13;;
50102;SDS011;35993;52.604;10.078;2022-10-17T01:08:07;4.78;;;2.38;;
50102;SDS011;35993;52.604;10.078;2022-10-17T01:10:41;4.00;;;2.25;;
50102;SDS011;35993;52.604;10.078;2022-10-17T01:13:45;3.53;;;2.30;;
50102;SDS011;35993;52.604;10.078;2022-10-17T01:22:15;5.93;;;2.35;;
50102;SDS011;35993;52.604;10.078;2022-10-17T01:32:37;5.32;;;2.78;;
50102;SDS011;35993;52.604;10.078;2022-10-17T01:40:44;4.55;;;2.33;;
50102;SDS011;35993;52.604;10.078;2022-10-17T01:43:32;3.58;;;2.53;;
50102;SDS011;35993;52.604;10.078;2022-10-17T01:46:09;6.15;;;2.38;;
50102;SDS011;35993;52.604;10.078;2022-10-17T01:48:45;3.90;;;2.70;;
50102;SDS011;35993;52.604;10.078;2022-10-17T01:53:46;4.25;;;2.50;;
50102;SDS011;35993;52.604;10.078;2022-10-17T01:56:17;5.65;;;3.00;;
50102;SDS011;35993;52.604;10.078;2022-10-17T01:58:50;3.95;;;2.55;;
50102;SDS011;35993;52.604;10.078;2022-10-17T02:01:25;4.38;;;2.58;;
50102;SDS011;35993;52.604;10.078;2022-10-17T02:03:54;3.00;;;2.40;;
50102;SDS011;35993;52.604;10.078;2022-10-17T02:06:23;5.18;;;2.40;;
50102;SDS011;35993;52.604;10.078;2022-10-17T02:08:49;5.72;;;2.50;;
50102;SDS011;35993;52.604;10.078;2022-10-17T02:11:17;3.55;;;2.47;;
50102;SDS011;35993;52.604;10.078;2022-10-17T02:22:22;4.25;;;2.47;;
50102;SDS011;35993;52.604;10.078;2022-10-17T02:24:59;3.63;;;2.50;;
50102;SDS011;35993;52.604;10.078;2022-10-17T02:27:58;3.53;;;2.40;;
50102;SDS011;35993;52.604;10.078;2022-10-17T02:30:33;4.20;;;2.50;;
50102;SDS011;35993;52.604;10.078;2022-10-17T02:33:06;3.08;;;2.45;;
50102;SDS011;35993;52.604;10.078;2022-10-17T02:38:06;3.45;;;2.35;;
50102;SDS011;35993;52.604;10.078;2022-10-17T02:40:35;3.28;;;2.42;;
50102;SDS011;35993;52.604;10.078;2022-10-17T02:43:02;5.82;;;2.40;;
50102;SDS011;35993;52.604;10.078;2022-10-17T02:45:28;7.28;;;2.80;;
50102;SDS011;35993;52.604;10.078;2022-10-17T02:48:18;4.47;;;2.63;;
50102;SDS011;35993;52.604;10.078;2022-10-17T02:53:40;5.72;;;2.50;;
50102;SDS011;35993;52.604;10.078;2022-10-17T02:56:21;3.03;;;2.33;;
50102;SDS011;35993;52.604;10.078;2022-10-17T02:58:50;4.55;;;2.45;;
50102;SDS011;35993;52.604;10.078;2022-10-17T03:01:20;4.05;;;2.35;;
50102;SDS011;35993;52.604;10.078;2022-10-17T03:03:46;5.13;;;2.35;;
50102;SDS011;35993;52.604;10.078;2022-10-17T03:06:11;3.45;;;2.35;;
50102;SDS011;35993;52.604;10.078;2022-10-17T03:08:37;6.85;;;2.63;;
50102;SDS011;35993;52.604;10.078;2022-10-17T03:11:03;5.82;;;2.58;;
50102;SDS011;35993;52.604;10.078;2022-10-17T03:13:29;4.97;;;2.40;;
50102;SDS011;35993;52.604;10.078;2022-10-17T03:15:56;3.70;;;2.40;;
50102;SDS011;35993;52.604;10.078;2022-10-17T03:18:42;4.10;;;2.42;;
50102;SDS011;35993;52.604;10.078;2022-10-17T03:21:08;3.88;;;2.22;;
50102;SDS011;35993;52.604;10.078;2022-10-17T03:23:34;3.15;;;2.20;;
50102;SDS011;35993;52.604;10.078;2022-10-17T03:26:04;5.05;;;2.40;;
50102;SDS011;35993;52.604;10.078;2022-10-17T03:28:32;4.30;;;2.22;;
50102;SDS011;35993;52.604;10.078;2022-10-17T03:30:58;3.67;;;2.30;;
50102;SDS011;35993;52.604;10.078;2022-10-17T03:33:23;5.55;;;2.70;;
50102;SDS011;35993;52.604;10.078;2022-10-17T03:35:49;2.60;;;2.10;;
50102;SDS011;35993;52.604;10.078;2022-10-17T03:38:16;3.00;;;2.35;;
50102;SDS011;35993;52.604;10.078;2022-10-17T03:40:41;4.35;;;2.60;;
50102;SDS011;35993;52.604;10.078;2022-10-17T03:43:08;3.95;;;2.60;;
50102;SDS011;35993;52.604;10.078;2022-10-17T03:45:37;3.65;;;2.25;;
50102;SDS011;35993;52.604;10.078;2022-10-17T03:48:03;5.03;;;2.35;;
50102;SDS011;35993;52.604;10.078;2022-10-17T03:50:29;4.93;;;2.40;;
50102;SDS011;35993;52.604;10.078;2022-10-17T03:52:55;6.68;;;2.70;;
50102;SDS011;35993;52.604;10.078;2022-10-17T03:55:21;4.57;;;2.65;;
50102;SDS011;35993;52.604;10.078;2022-10-17T03:57:47;3.35;;;2.45;;
50102;SDS011;35993;52.604;10.078;2022-10-17T04:00:14;4.15;;;2.47;;
50102;SDS011;35993;52.604;10.078;2022-10-17T04:02:39;2.97;;;2.40;;
50102;SDS011;35993;52.604;10.078;2022-10-17T04:05:07;4.20;;;2.50;;
50102;SDS011;35993;52.604;10.078;2022-10-17T04:07:33;5.97;;;2.58;;
50102;SDS011;35993;52.604;10.078;2022-10-17T04:09:59;4.97;;;2.80;;
50102;SDS011;35993;52.604;10.078;2022-10-17T04:12:25;5.47;;;2.42;;
50102;SDS011;35993;52.604;10.078;2022-10-17T04:14:51;4.18;;;2.58;;
50102;SDS011;35993;52.604;10.078;2022-10-17T04:17:17;3.10;;;2.50;;
50102;SDS011;35993;52.604;10.078;2022-10-17T04:19:43;4.07;;;2.28;;
50102;SDS011;35993;52.604;10.078;2022-10-17T04:22:09;3.65;;;2.58;;
50102;SDS011;35993;52.604;10.078;2022-10-17T04:24:38;3.90;;;2.83;;
50102;SDS011;35993;52.604;10.078;2022-10-17T04:27:07;2.85;;;2.35;;
50102;SDS011;35993;52.604;10.078;2022-10-17T04:29:36;4.05;;;2.53;;
50102;SDS011;35993;52.604;10.078;2022-10-17T04:32:11;4.75;;;2.90;;
50102;SDS011;35993;52.604;10.078;2022-10-17T04:34:41;3.03;;;2.38;;
50102;SDS011;35993;52.604;10.078;2022-10-17T04:37:07;3.30;;;2.45;;
50102;SDS011;35993;52.604;10.078;2022-10-17T04:39:34;6.78;;;2.67;;
50102;SDS011;35993;52.604;10.078;2022-10-17T04:41:59;4.90;;;2.63;;
50102;SDS011;35993;52.604;10.078;2022-10-17T04:44:25;6.78;;;2.75;;
50102;SDS011;35993;52.604;10.078;2022-10-17T04:46:51;5.10;;;2.50;;
50102;SDS011;35993;52.604;10.078;2022-10-17T04:49:18;4.72;;;2.78;;
50102;SDS011;35993;52.604;10.078;2022-10-17T04:51:46;5.35;;;2.83;;
50102;SDS011;35993;52.604;10.078;2022-10-17T04:54:19;6.90;;;2.50;;
50102;SDS011;35993;52.604;10.078;2022-10-17T04:56:48;4.00;;;2.70;;
50102;SDS011;35993;52.604;10.078;2022-10-17T04:59:13;4.32;;;2.67;;
50102;SDS011;35993;52.604;10.078;2022-10-17T05:01:41;4.38;;;2.47;;
50102;SDS011;35993;52.604;10.078;2022-10-17T05:04:27;3.30;;;2.45;;
50102;SDS011;35993;52.604;10.078;2022-10-17T05:06:53;3.72;;;2.50;;
50102;SDS011;35993;52.604;10.078;2022-10-17T05:09:37;5.97;;;2.72;;
50102;SDS011;35993;52.604;10.078;2022-10-17T05:12:03;4.38;;;2.90;;
50102;SDS011;35993;52.604;10.078;2022-10-17T05:14:29;4.43;;;2.50;;
50102;SDS011;35993;52.604;10.078;2022-10-17T05:16:55;3.58;;;2.30;;
50102;SDS011;35993;52.604;10.078;2022-10-17T05:19:20;7.88;;;2.70;;
50102;SDS011;35993;52.604;10.078;2022-10-17T05:21:58;3.65;;;2.60;;
50102;SDS011;35993;52.604;10.078;2022-10-17T05:24:23;4.97;;;2.85;;
50102;SDS011;35993;52.604;10.078;2022-10-17T05:26:49;3.92;;;2.88;;
50102;SDS011;35993;52.604;10.078;2022-10-17T05:29:16;3.80;;;2.92;;
50102;SDS011;35993;52.604;10.078;2022-10-17T05:31:47;4.03;;;3.10;;
50102;SDS011;35993;52.604;10.078;2022-10-17T05:34:12;3.40;;;2.63;;
50102;SDS011;35993;52.604;10.078;2022-10-17T05:36:38;5.30;;;2.60;;
50102;SDS011;35993;52.604;10.078;2022-10-17T05:39:11;4.47;;;2.90;;
50102;SDS011;35993;52.604;10.078;2022-10-17T05:41:39;4.50;;;2.88;;
50102;SDS011;35993;52.604;10.078;2022-10-17T05:44:05;4.40;;;2.90;;
50102;SDS011;35993;52.604;10.078;2022-10-17T05:46:40;5.07;;;2.92;;
50102;SDS011;35993;52.604;10.078;2022-10-17T05:49:05;4.70;;;3.08;;
50102;SDS011;35993;52.604;10.078;2022-10-17T05:51:34;5.45;;;3.78;;
50102;SDS011;35993;52.604;10.078;2022-10-17T05:54:03;5.80;;;2.63;;
50102;SDS011;35993;52.604;10.078;2022-10-17T05:56:33;4.97;;;3.00;;
50102;SDS011;35993;52.604;10.078;2022-10-17T05:58:59;5.35;;;3.10;;
50102;SDS011;35993;52.604;10.078;2022-10-17T06:02:13;5.32;;;2.97;;
50102;SDS011;35993;52.604;10.078;2022-10-17T06:04:39;3.42;;;2.72;;
50102;SDS011;35993;52.604;10.078;2022-10-17T06:07:11;6.30;;;3.03;;
50102;SDS011;35993;52.604;10.078;2022-10-17T06:09:37;6.05;;;3.30;;
50102;SDS011;35993;52.604;10.078;2022-10-17T06:12:04;4.03;;;2.80;;
50102;SDS011;35993;52.604;10.078;2022-10-17T06:14:31;5.75;;;2.90;;
50102;SDS011;35993;52.604;10.078;2022-10-17T06:16:59;6.88;;;3.00;;
50102;SDS011;35993;52.604;10.078;2022-10-17T06:19:25;5.18;;;3.42;;
50102;SDS011;35993;52.604;10.078;2022-10-17T06:21:51;4.03;;;3.08;;
50102;SDS011;35993;52.604;10.078;2022-10-17T06:24:24;5.85;;;3.30;;
50102;SDS011;35993;52.604;10.078;2022-10-17T06:26:51;4.93;;;3.15;;
50102;SDS011;35993;52.604;10.078;2022-10-17T06:29:19;4.47;;;3.20;;
50102;SDS011;35993;52.604;10.078;2022-10-17T06:31:48;5.30;;;3.05;;
50102;SDS011;35993;52.604;10.078;2022-10-17T06:34:17;7.55;;;3.55;;
50102;SDS011;35993;52.604;10.078;2022-10-17T06:36:44;5.00;;;3.08;;
50102;SDS011;35993;52.604;10.078;2022-10-17T06:39:10;6.97;;;3.80;;
50102;SDS011;35993;52.604;10.078;2022-10-17T06:41:40;4.95;;;3.20;;
50102;SDS011;35993;52.604;10.078;2022-10-17T06:44:08;4.63;;;3.30;;
50102;SDS011;35993;52.604;10.078;2022-10-17T06:47:15;5.60;;;3.10;;
50102;SDS011;35993;52.604;10.078;2022-10-17T06:49:42;7.10;;;3.40;;
50102;SDS011;35993;52.604;10.078;2022-10-17T06:52:43;5.07;;;3.30;;
50102;SDS011;35993;52.604;10.078;2022-10-17T06:55:27;4.30;;;3.20;;
50102;SDS011;35993;52.604;10.078;2022-10-17T06:58:08;4.05;;;3.00;;
50102;SDS011;35993;52.604;10.078;2022-10-17T07:01:07;5.00;;;3.08;;
50102;SDS011;35993;52.604;10.078;2022-10-17T07:03:49;5.75;;;3.30;;
50102;SDS011;35993;52.604;10.078;2022-10-17T07:06:14;5.32;;;3.42;;
50102;SDS011;35993;52.604;10.078;2022-10-17T07:08:42;4.75;;;3.00;;
50102;SDS011;35993;52.604;10.078;2022-10-17T07:11:09;6.47;;;3.15;;
50102;SDS011;35993;52.604;10.078;2022-10-17T07:13:37;5.72;;;2.80;;
50102;SDS011;35993;52.604;10.078;2022-10-17T07:16:03;5.32;;;3.05;;
50102;SDS011;35993;52.604;10.078;2022-10-17T07:18:30;4.30;;;3.15;;
50102;SDS011;35993;52.604;10.078;2022-10-17T07:20:56;3.92;;;3.03;;
50102;SDS011;35993;52.604;10.078;2022-10-17T07:23:24;6.00;;;2.72;;
50102;SDS011;35993;52.604;10.078;2022-10-17T07:26:04;4.30;;;2.92;;
50102;SDS011;35993;52.604;10.078;2022-10-17T07:28:58;4.18;;;2.85;;
50102;SDS011;35993;52.604;10.078;2022-10-17T07:31:34;5.57;;;3.28;;
50102;SDS011;35993;52.604;10.078;2022-10-17T07:33:59;6.30;;;3.45;;
50102;SDS011;35993;52.604;10.078;2022-10-17T07:36:26;5.93;;;3.55;;
50102;SDS011;35993;52.604;10.078;2022-10-17T07:38:53;4.68;;;3.33;;
50102;SDS011;35993;52.604;10.078;2022-10-17T07:41:19;7.68;;;3.40;;
50102;SDS011;35993;52.604;10.078;2022-10-17T07:43:45;5.32;;;2.88;;
50102;SDS011;35993;52.604;10.078;2022-10-17T07:46:13;5.18;;;2.63;;
50102;SDS011;35993;52.604;10.078;2022-10-17T07:48:38;4.25;;;2.90;;
50102;SDS011;35993;52.604;10.078;2022-10-17T07:51:20;4.43;;;2.80;;
50102;SDS011;35993;52.604;10.078;2022-10-17T07:53:46;4.18;;;3.08;;
50102;SDS011;35993;52.604;10.078;2022-10-17T07:56:12;5.50;;;3.13;;
50102;SDS011;35993;52.604;10.078;2022-10-17T07:58:38;5.90;;;2.85;;
50102;SDS011;35993;52.604;10.078;2022-10-17T08:01:05;4.32;;;2.70;;
50102;SDS011;35993;52.604;10.078;2022-10-17T08:03:55;4.03;;;2.97;;
50102;SDS011;35993;52.604;10.078;2022-10-17T08:06:40;6.85;;;2.90;;
50102;SDS011;35993;52.604;10.078;2022-10-17T08:09:06;7.40;;;2.90;;
50102;SDS011;35993;52.604;10.078;2022-10-17T08:11:32;5.10;;;2.92;;
50102;SDS011;35993;52.604;10.078;2022-10-17T08:13:58;5.57;;;2.50;;
50102;SDS011;35993;52.604;10.078;2022-10-17T08:16:24;3.88;;;2.88;;
50102;SDS011;35993;52.604;10.078;2022-10-17T08:18:49;4.30;;;2.85;;
50102;SDS011;35993;52.604;10.078;2022-10-17T08:21:15;4.05;;;2.60;;
50102;SDS011;35993;52.604;10.078;2022-10-17T08:23:43;4.50;;;3.10;;
50102;SDS011;35993;52.604;10.078;2022-10-17T08:26:09;3.95;;;2.30;;
50102;SDS011;35993;52.604;10.078;2022-10-17T08:28:38;5.20;;;2.67;;
50102;SDS011;35993;52.604;10.078;2022-10-17T08:31:05;4.70;;;2.50;;
50102;SDS011;35993;52.604;10.078;2022-10-17T08:33:34;4.75;;;2.95;;
50102;SDS011;35993;52.604;10.078;2022-10-17T08:36:00;7.00;;;3.10;;
50102;SDS011;35993;52.604;10.078;2022-10-17T08:38:29;6.03;;;2.67;;
50102;SDS011;35993;52.604;10.078;2022-10-17T08:40:58;4.57;;;2.70;;
50102;SDS011;35993;52.604;10.078;2022-10-17T08:46:22;4.72;;;2.50;;
50102;SDS011;35993;52.604;10.078;2022-10-17T08:48:55;4.93;;;2.90;;
50102;SDS011;35993;52.604;10.078;2022-10-17T08:51:26;3.67;;;2.40;;
50102;SDS011;35993;52.604;10.078;2022-10-17T08:54:05;5.22;;;2.85;;
50102;SDS011;35993;52.604;10.078;2022-10-17T08:57:14;6.22;;;2.63;;
50102;SDS011;35993;52.604;10.078;2022-10-17T08:59:43;7.10;;;2.50;;
50102;SDS011;35993;52.604;10.078;2022-10-17T09:02:36;8.90;;;3.95;;
50102;SDS011;35993;52.604;10.078;2022-10-17T09:11:46;5.10;;;2.45;;
50102;SDS011;35993;52.604;10.078;2022-10-17T09:14:49;6.10;;;2.63;;
50102;SDS011;35993;52.604;10.078;2022-10-17T09:17:34;8.00;;;2.60;;
50102;SDS011;35993;52.604;10.078;2022-10-17T09:20:17;5.40;;;2.63;;
50102;SDS011;35993;52.604;10.078;2022-10-17T09:22:58;5.07;;;2.55;;
50102;SDS011;35993;52.604;10.078;2022-10-17T09:25:39;5.35;;;2.50;;
50102;SDS011;35993;52.604;10.078;2022-10-17T09:28:24;3.55;;;2.65;;
50102;SDS011;35993;52.604;10.078;2022-10-17T09:31:08;4.25;;;2.40;;
50102;SDS011;35993;52.604;10.078;2022-10-17T09:33:53;3.63;;;2.42;;
50102;SDS011;35993;52.604;10.078;2022-10-17T09:39:02;3.15;;;2.67;;
50102;SDS011;35993;52.604;10.078;2022-10-17T09:41:40;7.53;;;2.67;;
50102;SDS011;35993;52.604;10.078;2022-10-17T09:44:16;4.95;;;2.85;;
50102;SDS011;35993;52.604;10.078;2022-10-17T09:46:47;5.18;;;2.80;;
50102;SDS011;35993;52.604;10.078;2022-10-17T09:49:24;4.70;;;2.42;;
50102;SDS011;35993;52.604;10.078;2022-10-17T09:51:56;3.42;;;2.45;;
50102;SDS011;35993;52.604;10.078;2022-10-17T09:54:24;5.03;;;2.65;;
50102;SDS011;35993;52.604;10.078;2022-10-17T09:57:06;7.82;;;2.65;;
50102;SDS011;35993;52.604;10.078;2022-10-17T09:59:34;4.55;;;2.50;;
50102;SDS011;35993;52.604;10.078;2022-10-17T10:02:19;4.93;;;2.55;;
50102;SDS011;35993;52.604;10.078;2022-10-17T10:04:57;4.25;;;2.85;;
50102;SDS011;35993;52.604;10.078;2022-10-17T10:07:32;5.15;;;2.53;;
50102;SDS011;35993;52.604;10.078;2022-10-17T10:09:59;3.88;;;2.60;;
50102;SDS011;35993;52.604;10.078;2022-10-17T10:12:28;4.03;;;2.50;;
50102;SDS011;35993;52.604;10.078;2022-10-17T10:14:57;2.78;;;2.30;;
50102;SDS011;35993;52.604;10.078;2022-10-17T10:20:31;4.88;;;2.40;;
50102;SDS011;35993;52.604;10.078;2022-10-17T10:23:04;6.35;;;2.85;;
50102;SDS011;35993;52.604;10.078;2022-10-17T10:25:31;4.82;;;2.70;;
50102;SDS011;35993;52.604;10.078;2022-10-17T10:27:57;6.68;;;2.75;;
50102;SDS011;35993;52.604;10.078;2022-10-17T10:30:27;5.65;;;2.70;;
50102;SDS011;35993;52.604;10.078;2022-10-17T10:32:55;3.65;;;2.30;;
50102;SDS011;35993;52.604;10.078;2022-10-17T10:35:28;4.85;;;2.30;;
50102;SDS011;35993;52.604;10.078;2022-10-17T10:37:57;6.18;;;2.50;;
50102;SDS011;35993;52.604;10.078;2022-10-17T10:40:33;5.07;;;2.50;;
50102;SDS011;35993;52.604;10.078;2022-10-17T10:43:03;4.53;;;2.20;;
50102;SDS011;35993;52.604;10.078;2022-10-17T10:48:10;6.38;;;2.67;;
50102;SDS011;35993;52.604;10.078;2022-10-17T10:50:55;3.22;;;2.35;;
50102;SDS011;35993;52.604;10.078;2022-10-17T11:07:01;7.75;;;2.22;;
50102;SDS011;35993;52.604;10.078;2022-10-17T11:12:29;4.97;;;2.22;;
50102;SDS011;35993;52.604;10.078;2022-10-17T11:18:06;3.78;;;2.85;;
50102;SDS011;35993;52.604;10.078;2022-10-17T11:23:41;4.13;;;2.40;;
50102;SDS011;35993;52.604;10.078;2022-10-17T11:26:30;6.05;;;2.17;;
50102;SDS011;35993;52.604;10.078;2022-10-17T11:28:59;4.03;;;2.55;;
50102;SDS011;35993;52.604;10.078;2022-10-17T11:31:32;4.57;;;2.45;;
50102;SDS011;35993;52.604;10.078;2022-10-17T11:34:09;4.68;;;2.08;;
50102;SDS011;35993;52.604;10.078;2022-10-17T11:36:36;4.30;;;2.22;;
50102;SDS011;35993;52.604;10.078;2022-10-17T11:39:10;4.40;;;2.42;;
50102;SDS011;35993;52.604;10.078;2022-10-17T11:41:51;3.65;;;2.40;;
50102;SDS011;35993;52.604;10.078;2022-10-17T11:44:30;4.55;;;2.60;;
50102;SDS011;35993;52.604;10.078;2022-10-17T11:49:49;3.95;;;2.38;;
50102;SDS011;35993;52.604;10.078;2022-10-17T11:54:50;4.50;;;2.30;;
50102;SDS011;35993;52.604;10.078;2022-10-17T12:08:24;3.58;;;2.30;;
50102;SDS011;35993;52.604;10.078;2022-10-17T12:17:01;4.05;;;2.40;;
50102;SDS011;35993;52.604;10.078;2022-10-17T12:19:47;5.15;;;2.70;;
50102;SDS011;35993;52.604;10.078;2022-10-17T12:22:17;4.00;;;2.33;;
50102;SDS011;35993;52.604;10.078;2022-10-17T12:25:00;5.72;;;2.63;;
50102;SDS011;35993;52.604;10.078;2022-10-17T12:27:37;6.10;;;2.85;;
50102;SDS011;35993;52.604;10.078;2022-10-17T12:33:16;6.03;;;2.35;;
50102;SDS011;35993;52.604;10.078;2022-10-17T12:35:48;4.50;;;2.35;;
50102;SDS011;35993;52.604;10.078;2022-10-17T12:53:30;6.32;;;2.42;;
50102;SDS011;35993;52.604;10.078;2022-10-17T12:56:12;3.42;;;2.40;;
50102;SDS011;35993;52.604;10.078;2022-10-17T12:58:47;3.00;;;2.22;;
50102;SDS011;35993;52.604;10.078;2022-10-17T13:01:18;5.13;;;2.42;;
50102;SDS011;35993;52.604;10.078;2022-10-17T13:03:51;4.03;;;2.17;;
50102;SDS011;35993;52.604;10.078;2022-10-17T13:06:21;5.60;;;2.42;;
50102;SDS011;35993;52.604;10.078;2022-10-17T13:09:04;4.75;;;2.42;;
50102;SDS011;35993;52.604;10.078;2022-10-17T13:11:49;5.47;;;2.38;;
50102;SDS011;35993;52.604;10.078;2022-10-17T13:14:15;5.30;;;2.35;;
50102;SDS011;35993;52.604;10.078;2022-10-17T13:16:54;5.15;;;2.53;;
50102;SDS011;35993;52.604;10.078;2022-10-17T13:19:23;5.50;;;2.58;;
50102;SDS011;35993;52.604;10.078;2022-10-17T13:22:00;6.97;;;2.78;;
50102;SDS011;35993;52.604;10.078;2022-10-17T13:24:28;5.57;;;2.72;;
50102;SDS011;35993;52.604;10.078;2022-10-17T13:26:56;4.28;;;2.38;;
50102;SDS011;35993;52.604;10.078;2022-10-17T13:29:23;3.17;;;2.50;;
50102;SDS011;35993;52.604;10.078;2022-10-17T13:31:53;3.83;;;2.60;;
50102;SDS011;35993;52.604;10.078;2022-10-17T13:34:22;6.88;;;2.42;;
50102;SDS011;35993;52.604;10.078;2022-10-17T13:37:09;4.75;;;2.55;;
50102;SDS011;35993;52.604;10.078;2022-10-17T13:39:39;4.43;;;2.30;;
50102;SDS011;35993;52.604;10.078;2022-10-17T13:42:14;6.93;;;2.60;;
50102;SDS011;35993;52.604;10.078;2022-10-17T13:44:44;5.38;;;2.38;;
50102;SDS011;35993;52.604;10.078;2022-10-17T13:47:20;5.25;;;2.45;;
50102;SDS011;35993;52.604;10.078;2022-10-17T13:49:48;4.55;;;2.28;;
50102;SDS011;35993;52.604;10.078;2022-10-17T13:52:16;5.05;;;2.50;;
50102;SDS011;35993;52.604;10.078;2022-10-17T13:54:45;4.93;;;2.78;;
50102;SDS011;35993;52.604;10.078;2022-10-17T13:57:17;8.15;;;2.67;;
50102;SDS011;35993;52.604;10.078;2022-10-17T13:59:56;3.92;;;2.72;;
50102;SDS011;35993;52.604;10.078;2022-10-17T14:02:26;5.75;;;2.80;;
50102;SDS011;35993;52.604;10.078;2022-10-17T14:05:08;7.10;;;2.67;;
50102;SDS011;35993;52.604;10.078;2022-10-17T14:13:00;6.75;;;2.75;;
50102;SDS011;35993;52.604;10.078;2022-10-17T14:15:33;6.97;;;3.17;;
50102;SDS011;35993;52.604;10.078;2022-10-17T14:18:01;5.75;;;2.72;;
50102;SDS011;35993;52.604;10.078;2022-10-17T14:20:29;5.95;;;2.92;;
50102;SDS011;35993;52.604;10.078;2022-10-17T14:22:56;4.00;;;2.90;;
50102;SDS011;35993;52.604;10.078;2022-10-17T14:26:02;10.15;;;2.90;;
50102;SDS011;35993;52.604;10.078;2022-10-17T14:28:28;4.00;;;2.53;;
50102;SDS011;35993;52.604;10.078;2022-10-17T14:31:07;4.55;;;2.83;;
50102;SDS011;35993;52.604;10.078;2022-10-17T14:33:43;5.32;;;2.65;;
50102;SDS011;35993;52.604;10.078;2022-10-17T14:36:10;4.88;;;3.03;;
50102;SDS011;35993;52.604;10.078;2022-10-17T14:38:37;4.97;;;2.97;;
50102;SDS011;35993;52.604;10.078;2022-10-17T14:41:25;7.30;;;2.90;;
50102;SDS011;35993;52.604;10.078;2022-10-17T14:43:54;7.03;;;2.70;;
50102;SDS011;35993;52.604;10.078;2022-10-17T14:46:22;5.85;;;2.88;;
50102;SDS011;35993;52.604;10.078;2022-10-17T14:48:56;4.53;;;2.80;;
50102;SDS011;35993;52.604;10.078;2022-10-17T14:51:31;4.45;;;3.03;;
50102;SDS011;35993;52.604;10.078;2022-10-17T14:54:14;5.40;;;2.50;;
50102;SDS011;35993;52.604;10.078;2022-10-17T14:56:50;5.60;;;2.70;;
50102;SDS011;35993;52.604;10.078;2022-10-17T14:59:17;5.50;;;2.75;;
50102;SDS011;35993;52.604;10.078;2022-10-17T15:01:50;4.82;;;2.50;;
50102;SDS011;35993;52.604;10.078;2022-10-17T15:04:16;4.78;;;2.72;;
50102;SDS011;35993;52.604;10.078;2022-10-17T15:06:42;4.15;;;2.80;;
50102;SDS011;35993;52.604;10.078;2022-10-17T15:09:09;6.55;;;3.05;;
50102;SDS011;35993;52.604;10.078;2022-10-17T15:11:36;5.63;;;3.13;;
50102;SDS011;35993;52.604;10.078;2022-10-17T15:14:02;9.70;;;3.25;;
50102;SDS011;35993;52.604;10.078;2022-10-17T15:16:29;6.68;;;3.17;;
50102;SDS011;35993;52.604;10.078;2022-10-17T15:18:56;6.05;;;3.38;;
50102;SDS011;35993;52.604;10.078;2022-10-17T15:21:23;8.70;;;3.67;;
50102;SDS011;35993;52.604;10.078;2022-10-17T15:23:49;5.65;;;3.30;;
50102;SDS011;35993;52.604;10.078;2022-10-17T15:26:25;6.50;;;3.10;;
50102;SDS011;35993;52.604;10.078;2022-10-17T15:28:55;7.00;;;3.00;;
50102;SDS011;35993;52.604;10.078;2022-10-17T15:31:21;4.18;;;2.83;;
50102;SDS011;35993;52.604;10.078;2022-10-17T15:33:49;7.22;;;3.40;;
50102;SDS011;35993;52.604;10.078;2022-10-17T15:36:28;4.25;;;3.13;;
50102;SDS011;35993;52.604;10.078;2022-10-17T15:38:56;5.03;;;3.53;;
50102;SDS011;35993;52.604;10.078;2022-10-17T15:41:29;5.15;;;3.38;;
50102;SDS011;35993;52.604;10.078;2022-10-17T15:43:56;7.78;;;3.40;;
50102;SDS011;35993;52.604;10.078;2022-10-17T15:46:30;5.05;;;3.30;;
50102;SDS011;35993;52.604;10.078;2022-10-17T15:49:37;5.15;;;3.40;;
50102;SDS011;35993;52.604;10.078;2022-10-17T15:52:03;5.57;;;3.83;;
50102;SDS011;35993;52.604;10.078;2022-10-17T15:54:29;5.65;;;4.10;;
50102;SDS011;35993;52.604;10.078;2022-10-17T15:56:55;5.63;;;3.70;;
50102;SDS011;35993;52.604;10.078;2022-10-17T15:59:40;6.85;;;3.97;;
50102;SDS011;35993;52.604;10.078;2022-10-17T16:02:12;8.00;;;4.05;;
50102;SDS011;35993;52.604;10.078;2022-10-17T16:04:39;6.10;;;3.80;;
50102;SDS011;35993;52.604;10.078;2022-10-17T16:07:06;6.40;;;4.00;;
50102;SDS011;35993;52.604;10.078;2022-10-17T16:09:32;7.97;;;4.15;;
50102;SDS011;35993;52.604;10.078;2022-10-17T16:12:27;7.70;;;3.80;;
50102;SDS011;35993;52.604;10.078;2022-10-17T16:14:54;6.95;;;4.15;;
50102;SDS011;35993;52.604;10.078;2022-10-17T16:17:22;7.45;;;3.65;;
50102;SDS011;35993;52.604;10.078;2022-10-17T16:19:48;7.50;;;3.78;;
50102;SDS011;35993;52.604;10.078;2022-10-17T16:22:19;10.98;;;4.05;;
50102;SDS011;35993;52.604;10.078;2022-10-17T16:24:50;8.65;;;4.20;;
50102;SDS011;35993;52.604;10.078;2022-10-17T16:27:22;8.65;;;4.90;;
50102;SDS011;35993;52.604;10.078;2022-10-17T16:29:48;8.35;;;4.30;;
50102;SDS011;35993;52.604;10.078;2022-10-17T16:32:13;5.78;;;4.03;;
50102;SDS011;35993;52.604;10.078;2022-10-17T16:34:39;8.60;;;4.40;;
50102;SDS011;35993;52.604;10.078;2022-10-17T16:37:05;8.73;;;4.55;;
50102;SDS011;35993;52.604;10.078;2022-10-17T16:39:30;8.10;;;4.63;;
50102;SDS011;35993;52.604;10.078;2022-10-17T16:41:56;7.45;;;5.03;;
50102;SDS011;35993;52.604;10.078;2022-10-17T16:44:22;11.05;;;5.05;;
50102;SDS011;35993;52.604;10.078;2022-10-17T16:46:47;7.60;;;4.40;;
50102;SDS011;35993;52.604;10.078;2022-10-17T16:49:13;9.32;;;4.88;;
50102;SDS011;35993;52.604;10.078;2022-10-17T16:51:51;6.22;;;4.93;;
50102;SDS011;35993;52.604;10.078;2022-10-17T16:54:18;7.70;;;5.10;;
50102;SDS011;35993;52.604;10.078;2022-10-17T16:56:47;5.65;;;4.88;;
50102;SDS011;35993;52.604;10.078;2022-10-17T16:59:14;7.35;;;5.25;;
50102;SDS011;35993;52.604;10.078;2022-10-17T17:01:39;9.50;;;5.03;;